createdAt,value
2022-11-20T20:22:32.693Z,80.57
2022-11-20T20:24:44.174Z,80.07
2022-11-20T20:26:52.352Z,77.09
2022-11-20T20:29:02.739Z,79.29
2022-11-20T20:31:12.462Z,74.71
2022-11-20T20:33:21.651Z,85.28
2022-11-20T20:35:29.748Z,72.92
2022-11-20T20:47:01.146Z,81.46
2022-11-20T20:49:07.978Z,79.85
2022-11-20T20:51:14.735Z,81.87
2022-11-20T20:53:20.818Z,71.41
2022-11-20T20:55:34.032Z,78.14
2022-11-20T20:57:40.597Z,64.54
2022-11-20T20:59:48.994Z,72.56
2022-11-20T21:01:59.853Z,50.80
2022-11-20T21:04:05.845Z,71.33
2022-11-20T21:06:14.764Z,75.63
2022-11-20T21:08:25.584Z,82.89
2022-11-20T21:10:31.497Z,71.83
2022-11-20T21:12:38.825Z,61.42
2022-11-20T21:14:48.202Z,56.83
2022-11-20T21:16:54.257Z,56.46
2022-11-20T21:19:00.258Z,64.45
2022-11-20T21:21:32.369Z,68.47
2022-11-20T21:23:39.969Z,67.86
2022-11-20T21:25:46.040Z,71.80
2022-11-20T21:27:53.707Z,70.54
2022-11-20T21:30:08.881Z,62.57
2022-11-20T21:32:16.099Z,61.42
2022-11-20T21:34:26.094Z,65.89
2022-11-20T21:36:34.970Z,69.50
2022-11-20T21:38:40.704Z,63.09
2022-11-20T21:40:47.428Z,66.62
2022-11-20T21:42:53.329Z,63.91
2022-11-20T21:45:02.712Z,62.39
2022-11-20T21:47:11.624Z,68.75
2022-11-20T21:49:18.492Z,70.40
2022-11-20T21:51:33.268Z,66.54
2022-11-20T21:53:40.754Z,68.88
2022-11-20T21:55:46.706Z,73.38
2022-11-20T21:57:54.825Z,72.06
2022-11-20T22:00:04.112Z,66.00
2022-11-20T22:02:15.928Z,66.15
2022-11-20T22:04:23.099Z,73.81
2022-11-20T22:06:35.890Z,64.55
2022-11-20T22:08:42.562Z,65.16
2022-11-20T22:11:00.853Z,62.30
2022-11-20T22:13:20.111Z,59.63
2022-11-20T22:15:53.567Z,66.84
2022-11-20T22:18:06.853Z,66.85
2022-11-20T22:20:14.525Z,63.23
2022-11-20T22:22:20.325Z,63.42
2022-11-20T22:24:26.897Z,63.03
2022-11-20T22:26:40.709Z,63.35
2022-11-20T22:28:50.626Z,60.17
2022-11-20T22:31:01.750Z,60.47
2022-11-20T22:33:17.771Z,62.48
2022-11-20T22:35:29.486Z,60.80
2022-11-20T22:37:35.299Z,57.53
2022-11-20T22:39:42.024Z,56.34
2022-11-20T22:41:47.839Z,58.84
2022-11-20T22:43:58.318Z,59.55
2022-11-20T22:46:14.737Z,59.14
2022-11-20T22:48:20.480Z,53.43
2022-11-20T22:50:26.278Z,52.88
2022-11-20T22:52:32.982Z,55.02
2022-11-20T22:54:38.908Z,53.93
2022-11-20T22:56:45.815Z,55.26
2022-11-20T22:58:55.519Z,56.53
2022-11-20T23:01:17.275Z,53.81
2022-11-20T23:03:23.173Z,57.01
2022-11-20T23:05:29.899Z,54.99
2022-11-20T23:07:40.726Z,57.81
2022-11-20T23:09:50.153Z,56.67
2022-11-20T23:11:56.820Z,57.10
2022-11-20T23:14:06.610Z,55.84
2022-11-20T23:16:18.149Z,55.63
2022-11-20T23:18:32.890Z,55.79
2022-11-20T23:20:40.677Z,55.02
2022-11-20T23:22:46.521Z,56.39
2022-11-20T23:24:53.211Z,53.67
2022-11-20T23:26:58.940Z,53.13
2022-11-20T23:29:05.915Z,51.30
2022-11-20T23:31:17.544Z,52.59
2022-11-20T23:33:23.255Z,50.50
2022-11-20T23:35:28.962Z,51.59
2022-11-20T23:37:36.134Z,54.39
2022-11-20T23:39:41.889Z,56.79
2022-11-20T23:41:47.662Z,57.36
2022-11-20T23:43:55.057Z,57.52
2022-11-20T23:46:06.230Z,59.37
2022-11-20T23:48:15.802Z,54.39
2022-11-20T23:50:22.283Z,50.82
2022-11-20T23:52:28.005Z,53.69
2022-11-20T23:54:33.667Z,50.84
2022-11-20T23:56:40.202Z,48.62
2022-11-20T23:58:46.758Z,51.47
